Time;durP1;ratioP1;P1;durP2;ratioP2;P2;SDS_P1;SDS_P2;PMS_P1;PMS_P2;Temp;Humidity;BMP_temperature;BMP_pressure;BME280_temperature;BME280_humidity;BME280_pressure;Samples;Min_cycle;Max_cycle;Signal;HPM_P1;HPM_P2
2022/07/19 00:01:32;;;;;;;7.90;7.22;;;;;;;;;;5059665;28;20069;-72
2022/07/19 00:03:58;;;;;;;8.23;7.53;;;;;;;;;;5061384;28;20032;-73
2022/07/19 00:06:24;;;;;;;9.60;8.80;;;;;;;;;;5063532;28;20033;-72
2022/07/19 00:08:50;;;;;;;9.80;8.70;;;;;;;;;;5064988;28;20039;-72
2022/07/19 00:11:16;;;;;;;8.77;7.97;;;;;;;;;;5063839;28;20024;-72
2022/07/19 00:13:43;;;;;;;9.30;8.60;;;;;;;;;;5063873;28;20037;-72
2022/07/19 00:16:09;;;;;;;8.90;8.10;;;;;;;;;;5061052;28;20033;-73
2022/07/19 00:18:35;;;;;;;9.15;8.23;;;;;;;;;;5062853;28;20036;-72
2022/07/19 00:21:01;;;;;;;8.15;7.47;;;;;;;;;;5059005;28;20028;-72
2022/07/19 00:23:27;;;;;;;8.43;7.72;;;;;;;;;;5061867;28;20024;-73
2022/07/19 00:25:53;;;;;;;8.15;7.55;;;;;;;;;;5063872;28;20043;-72
2022/07/19 00:28:20;;;;;;;7.82;7.13;;;;;;;;;;5059030;28;20024;-72
2022/07/19 00:30:46;;;;;;;9.15;8.27;;;;;;;;;;5059686;28;20526;-72
2022/07/19 00:33:12;;;;;;;8.30;7.57;;;;;;;;;;5062723;28;20047;-73
2022/07/19 00:35:38;;;;;;;8.40;7.60;;;;;;;;;;5059500;28;20721;-72
2022/07/19 00:38:08;;;;;;;8.02;6.95;;;;;;;;;;5064738;28;20155;-72
2022/07/19 00:40:35;;;;;;;7.00;6.50;;;;;;;;;;5066956;28;20618;-72
2022/07/19 00:43:01;;;;;;;6.72;6.15;;;;;;;;;;5063369;28;20025;-72
2022/07/19 00:45:28;;;;;;;7.07;6.47;;;;;;;;;;5069160;28;20066;-71
2022/07/19 00:47:54;;;;;;;6.85;6.25;;;;;;;;;;5043158;28;20451;-72
2022/07/19 00:50:20;;;;;;;7.32;6.70;;;;;;;;;;5065025;28;20017;-72
2022/07/19 00:52:49;;;;;;;7.75;7.15;;;;;;;;;;5063234;28;20027;-72
2022/07/19 00:55:17;;;;;;;8.43;7.22;;;;;;;;;;5068193;28;20116;-71
2022/07/19 00:57:43;;;;;;;7.78;6.43;;;;;;;;;;5066634;28;20017;-71
2022/07/19 01:00:10;;;;;;;6.70;6.13;;;;;;;;;;5066671;28;20028;-72
2022/07/19 01:02:37;;;;;;;6.32;5.78;;;;;;;;;;5061153;28;20067;-71
2022/07/19 01:05:04;;;;;;;6.35;5.75;;;;;;;;;;5065232;28;20036;-71
2022/07/19 01:07:30;;;;;;;7.32;6.15;;;;;;;;;;5061606;28;20025;-71
2022/07/19 01:09:56;;;;;;;6.35;5.82;;;;;;;;;;5066826;28;20028;-72
2022/07/19 01:12:22;;;;;;;6.72;6.20;;;;;;;;;;5066313;28;20046;-72
2022/07/19 01:14:49;;;;;;;7.40;6.70;;;;;;;;;;5069373;28;20092;-72
2022/07/19 01:17:15;;;;;;;7.65;6.97;;;;;;;;;;5066712;28;20516;-72
2022/07/19 01:19:44;;;;;;;7.50;6.80;;;;;;;;;;5062571;28;20031;-71
2022/07/19 01:22:11;;;;;;;7.72;6.45;;;;;;;;;;5059333;28;20051;-72
2022/07/19 01:24:37;;;;;;;7.30;6.60;;;;;;;;;;5057238;28;20029;-71
2022/07/19 01:27:05;;;;;;;6.60;6.10;;;;;;;;;;5058186;28;20032;-72
2022/07/19 01:29:31;;;;;;;7.22;6.38;;;;;;;;;;5058362;28;20028;-71
2022/07/19 01:31:58;;;;;;;7.10;6.47;;;;;;;;;;5059564;28;20020;-71
2022/07/19 01:34:24;;;;;;;7.28;6.53;;;;;;;;;;5052656;28;20032;-72
2022/07/19 01:36:50;;;;;;;7.40;6.70;;;;;;;;;;5057422;28;20035;-71
2022/07/19 01:39:16;;;;;;;6.80;6.20;;;;;;;;;;5058444;28;20031;-72
2022/07/19 01:41:42;;;;;;;7.05;6.22;;;;;;;;;;5057411;28;20033;-71
2022/07/19 01:44:08;;;;;;;8.38;6.18;;;;;;;;;;5055883;28;20024;-72
2022/07/19 01:46:34;;;;;;;7.00;6.30;;;;;;;;;;5056532;28;20035;-72
2022/07/19 01:49:00;;;;;;;6.20;5.53;;;;;;;;;;5058593;28;20058;-72
2022/07/19 01:51:26;;;;;;;6.38;5.80;;;;;;;;;;5054280;28;20021;-71
2022/07/19 01:53:53;;;;;;;6.85;6.30;;;;;;;;;;5050116;28;20031;-72
2022/07/19 01:56:19;;;;;;;7.25;6.47;;;;;;;;;;5035122;28;20036;-72
2022/07/19 01:58:45;;;;;;;7.88;6.53;;;;;;;;;;5034538;28;20474;-73
2022/07/19 02:01:11;;;;;;;7.82;7.13;;;;;;;;;;5060235;28;20025;-71
2022/07/19 02:03:37;;;;;;;7.85;6.60;;;;;;;;;;5059911;28;20028;-72
2022/07/19 02:06:04;;;;;;;7.90;7.30;;;;;;;;;;5061487;28;20020;-72
2022/07/19 02:08:30;;;;;;;7.80;7.10;;;;;;;;;;5060899;28;20036;-72
2022/07/19 02:10:56;;;;;;;7.57;6.90;;;;;;;;;;5058361;28;20095;-72
2022/07/19 02:13:22;;;;;;;9.25;7.45;;;;;;;;;;5061446;28;20226;-72
2022/07/19 02:15:48;;;;;;;8.18;7.38;;;;;;;;;;5057856;28;20174;-71
2022/07/19 02:18:14;;;;;;;8.63;7.82;;;;;;;;;;5061304;28;20053;-71
2022/07/19 02:20:41;;;;;;;8.00;7.20;;;;;;;;;;5063501;28;20090;-71
2022/07/19 02:23:07;;;;;;;7.63;6.93;;;;;;;;;;5061846;28;20032;-71
2022/07/19 02:25:33;;;;;;;7.50;7.00;;;;;;;;;;5053664;28;20135;-71
2022/07/19 02:28:00;;;;;;;8.45;7.68;;;;;;;;;;5063280;28;20099;-72
2022/07/19 02:30:26;;;;;;;9.13;8.43;;;;;;;;;;5063797;28;20116;-71
2022/07/19 02:32:52;;;;;;;8.68;7.97;;;;;;;;;;5063532;28;20146;-71
2022/07/19 02:35:21;;;;;;;7.45;6.88;;;;;;;;;;5045074;28;20041;-72
2022/07/19 02:37:47;;;;;;;7.90;6.95;;;;;;;;;;5057226;28;20083;-72
2022/07/19 02:40:13;;;;;;;6.43;5.88;;;;;;;;;;5058271;28;20032;-72
2022/07/19 02:42:40;;;;;;;7.53;6.93;;;;;;;;;;5057240;28;20035;-72
2022/07/19 02:45:06;;;;;;;8.13;7.03;;;;;;;;;;5064803;28;20504;-72
2022/07/19 02:47:32;;;;;;;6.90;6.30;;;;;;;;;;5051661;28;20036;-73
2022/07/19 02:49:58;;;;;;;8.20;7.50;;;;;;;;;;5054796;28;20031;-73
2022/07/19 02:52:24;;;;;;;8.48;6.43;;;;;;;;;;5064539;28;20028;-72
2022/07/19 02:54:51;;;;;;;7.00;6.43;;;;;;;;;;5062802;28;20037;-73
2022/07/19 02:57:17;;;;;;;7.18;6.55;;;;;;;;;;5062983;28;20045;-72
2022/07/19 02:59:43;;;;;;;7.70;7.00;;;;;;;;;;5061761;28;20024;-72
2022/07/19 03:02:09;;;;;;;8.18;7.47;;;;;;;;;;5056842;28;20712;-73
2022/07/19 03:04:35;;;;;;;8.30;7.70;;;;;;;;;;5051045;28;20490;-73
2022/07/19 03:07:02;;;;;;;9.95;8.50;;;;;;;;;;5024336;28;20037;-73
2022/07/19 03:09:28;;;;;;;9.15;8.40;;;;;;;;;;5042685;28;20071;-73
2022/07/19 03:11:54;;;;;;;9.00;8.30;;;;;;;;;;5057278;28;20031;-73
2022/07/19 03:14:20;;;;;;;9.63;8.82;;;;;;;;;;5063661;28;20681;-72
2022/07/19 03:16:46;;;;;;;8.70;7.97;;;;;;;;;;5060518;28;20133;-75
2022/07/19 03:19:12;;;;;;;9.20;8.50;;;;;;;;;;5056802;28;20032;-73
2022/07/19 03:21:38;;;;;;;9.20;8.38;;;;;;;;;;5061735;28;20032;-72
2022/07/19 03:24:05;;;;;;;8.73;8.07;;;;;;;;;;5061723;28;20025;-72
2022/07/19 03:26:31;;;;;;;9.45;8.75;;;;;;;;;;5060262;28;20035;-72
2022/07/19 03:28:57;;;;;;;10.23;9.32;;;;;;;;;;5043134;28;20458;-72
2022/07/19 03:31:23;;;;;;;10.32;9.30;;;;;;;;;;5054891;28;20035;-72
2022/07/19 03:33:49;;;;;;;10.38;9.57;;;;;;;;;;5057474;28;20405;-72
2022/07/19 03:36:16;;;;;;;10.55;9.73;;;;;;;;;;5048902;28;20036;-74
2022/07/19 03:38:42;;;;;;;10.05;9.20;;;;;;;;;;5051488;28;20028;-72
2022/07/19 03:41:08;;;;;;;10.35;9.45;;;;;;;;;;5063366;28;20051;-72
2022/07/19 03:43:34;;;;;;;9.23;8.52;;;;;;;;;;5063480;28;20029;-73
2022/07/19 03:46:00;;;;;;;9.55;8.85;;;;;;;;;;5051844;28;20025;-71
2022/07/19 03:48:26;;;;;;;9.52;8.80;;;;;;;;;;5061149;28;20025;-71
2022/07/19 03:50:52;;;;;;;10.77;9.60;;;;;;;;;;5063203;28;20403;-72
2022/07/19 03:53:19;;;;;;;10.00;9.20;;;;;;;;;;5062982;28;20078;-73
2022/07/19 03:55:45;;;;;;;10.10;9.20;;;;;;;;;;5063455;28;20379;-72
2022/07/19 03:58:11;;;;;;;10.68;9.82;;;;;;;;;;5061620;28;20021;-71
2022/07/19 04:00:37;;;;;;;10.70;9.80;;;;;;;;;;5055574;28;20040;-72
2022/07/19 04:03:03;;;;;;;10.85;10.05;;;;;;;;;;5047538;28;20021;-72
2022/07/19 04:05:29;;;;;;;11.57;10.68;;;;;;;;;;5048802;28;20082;-72
2022/07/19 04:07:56;;;;;;;11.13;10.30;;;;;;;;;;5061440;28;20028;-73
2022/07/19 04:10:22;;;;;;;12.38;11.40;;;;;;;;;;5056578;28;20619;-73
2022/07/19 04:12:48;;;;;;;12.00;11.10;;;;;;;;;;5033738;28;20025;-73
2022/07/19 04:15:14;;;;;;;12.70;11.45;;;;;;;;;;5055374;28;20028;-73
2022/07/19 04:17:40;;;;;;;12.98;11.82;;;;;;;;;;5051264;28;20041;-73
2022/07/19 04:20:07;;;;;;;12.88;11.85;;;;;;;;;;5049539;28;20757;-73
2022/07/19 04:22:33;;;;;;;12.93;11.93;;;;;;;;;;5059963;28;20025;-72
2022/07/19 04:25:00;;;;;;;12.85;11.85;;;;;;;;;;5060770;28;20016;-73
2022/07/19 04:27:26;;;;;;;13.35;12.20;;;;;;;;;;5059591;28;20114;-72
2022/07/19 04:29:52;;;;;;;13.85;12.65;;;;;;;;;;5040192;28;20021;-73
2022/07/19 04:32:19;;;;;;;13.93;12.68;;;;;;;;;;5048435;28;20037;-74
2022/07/19 04:34:45;;;;;;;16.23;14.95;;;;;;;;;;5057619;28;20408;-72
2022/07/19 04:37:11;;;;;;;16.23;15.02;;;;;;;;;;5060288;28;20043;-72
2022/07/19 04:39:37;;;;;;;16.27;14.98;;;;;;;;;;5059834;28;20032;-73
2022/07/19 04:42:03;;;;;;;16.17;14.88;;;;;;;;;;5058694;28;20547;-72
2022/07/19 04:44:29;;;;;;;14.60;13.43;;;;;;;;;;5059825;28;20028;-73
2022/07/19 04:46:55;;;;;;;15.63;14.27;;;;;;;;;;5055249;28;20025;-72
2022/07/19 04:49:21;;;;;;;16.10;14.80;;;;;;;;;;5040112;28;20033;-72
2022/07/19 04:51:48;;;;;;;16.23;14.93;;;;;;;;;;5056052;28;20031;-73
2022/07/19 04:54:14;;;;;;;15.32;14.13;;;;;;;;;;5042043;28;20025;-72
2022/07/19 04:56:40;;;;;;;16.10;14.57;;;;;;;;;;5041833;28;20392;-73
2022/07/19 04:59:06;;;;;;;15.68;14.45;;;;;;;;;;5059694;28;20043;-72
2022/07/19 05:01:34;;;;;;;14.95;13.65;;;;;;;;;;5048240;28;20024;-72
2022/07/19 05:04:00;;;;;;;14.85;13.45;;;;;;;;;;5046896;28;20113;-73
2022/07/19 05:06:26;;;;;;;14.23;12.93;;;;;;;;;;5036772;28;20115;-73
2022/07/19 05:08:52;;;;;;;14.65;13.63;;;;;;;;;;5059634;28;20024;-73
2022/07/19 05:11:19;;;;;;;14.88;13.82;;;;;;;;;;5047914;28;20066;-75
2022/07/19 05:13:45;;;;;;;15.93;14.73;;;;;;;;;;5056452;28;20016;-73
2022/07/19 05:16:11;;;;;;;14.88;13.52;;;;;;;;;;5058975;28;20116;-72
2022/07/19 05:18:37;;;;;;;16.90;15.30;;;;;;;;;;5046887;28;20044;-73
2022/07/19 05:21:03;;;;;;;16.58;15.35;;;;;;;;;;5056320;28;20052;-72
2022/07/19 05:23:29;;;;;;;17.25;15.93;;;;;;;;;;5059133;28;20024;-73
2022/07/19 05:25:55;;;;;;;15.73;14.63;;;;;;;;;;5059357;28;20082;-73
2022/07/19 05:28:22;;;;;;;15.05;13.93;;;;;;;;;;5057915;28;20108;-72
2022/07/19 05:30:48;;;;;;;15.18;13.85;;;;;;;;;;5050972;28;20545;-72
2022/07/19 05:33:16;;;;;;;14.73;13.60;;;;;;;;;;5045401;28;20036;-72
2022/07/19 05:35:42;;;;;;;14.95;13.85;;;;;;;;;;5057668;28;20033;-72
2022/07/19 05:38:08;;;;;;;14.55;13.35;;;;;;;;;;5058265;28;20024;-72
2022/07/19 05:40:34;;;;;;;13.82;12.55;;;;;;;;;;5049181;28;20037;-73
2022/07/19 05:43:00;;;;;;;14.38;13.20;;;;;;;;;;5054857;28;20031;-74
2022/07/19 05:45:27;;;;;;;14.90;13.45;;;;;;;;;;5057716;28;20380;-72
2022/07/19 05:47:53;;;;;;;14.00;12.80;;;;;;;;;;5053886;28;20037;-73
2022/07/19 05:50:19;;;;;;;12.45;11.55;;;;;;;;;;5044933;28;20025;-73
2022/07/19 05:52:45;;;;;;;13.70;12.52;;;;;;;;;;5058951;28;20032;-73
2022/07/19 05:55:11;;;;;;;12.13;11.13;;;;;;;;;;5057103;28;20052;-74
2022/07/19 05:57:38;;;;;;;10.40;9.70;;;;;;;;;;5057660;28;20025;-73
2022/07/19 06:00:04;;;;;;;10.27;9.20;;;;;;;;;;5056966;28;20024;-73
2022/07/19 06:02:30;;;;;;;10.77;9.55;;;;;;;;;;5047120;28;20028;-73
2022/07/19 06:04:56;;;;;;;8.73;7.97;;;;;;;;;;5047284;28;20025;-72
2022/07/19 06:07:23;;;;;;;7.72;7.10;;;;;;;;;;5061000;28;20511;-72
2022/07/19 06:09:49;;;;;;;7.78;7.18;;;;;;;;;;5058954;28;20025;-70
2022/07/19 06:12:15;;;;;;;9.00;7.65;;;;;;;;;;5061085;28;20028;-71
2022/07/19 06:14:42;;;;;;;8.55;7.70;;;;;;;;;;5051831;28;20080;-72
2022/07/19 06:17:09;;;;;;;10.63;7.50;;;;;;;;;;5060877;28;20856;-72
2022/07/19 06:19:35;;;;;;;7.82;7.13;;;;;;;;;;5046378;28;20071;-71
2022/07/19 06:22:01;;;;;;;7.90;6.95;;;;;;;;;;5059271;28;20025;-71
2022/07/19 06:24:27;;;;;;;7.22;6.63;;;;;;;;;;5048528;28;20097;-72
2022/07/19 06:26:54;;;;;;;6.97;6.38;;;;;;;;;;5050280;28;20038;-71
2022/07/19 06:29:20;;;;;;;7.75;7.05;;;;;;;;;;5049946;28;20478;-70
2022/07/19 06:31:46;;;;;;;6.32;5.82;;;;;;;;;;5045706;28;20095;-70
2022/07/19 06:34:12;;;;;;;7.10;6.35;;;;;;;;;;5048121;28;20029;-71
2022/07/19 06:36:38;;;;;;;6.70;6.07;;;;;;;;;;5046395;28;20102;-71
2022/07/19 06:39:04;;;;;;;7.68;6.10;;;;;;;;;;5054697;28;20496;-70
2022/07/19 06:41:30;;;;;;;6.82;6.22;;;;;;;;;;5045276;28;20054;-68
2022/07/19 06:43:57;;;;;;;7.55;6.82;;;;;;;;;;5046669;28;20625;-71
2022/07/19 06:46:23;;;;;;;10.07;7.68;;;;;;;;;;5054206;28;20029;-73
2022/07/19 06:48:49;;;;;;;10.65;8.32;;;;;;;;;;5035953;28;20036;-71
2022/07/19 06:51:15;;;;;;;8.00;7.25;;;;;;;;;;5033585;28;20538;-73
2022/07/19 06:53:41;;;;;;;7.82;7.03;;;;;;;;;;5047615;28;20025;-70
2022/07/19 06:56:08;;;;;;;7.53;6.90;;;;;;;;;;5052025;28;20133;-70
2022/07/19 06:58:34;;;;;;;10.95;7.65;;;;;;;;;;5057383;28;20053;-70
2022/07/19 07:01:01;;;;;;;9.73;6.95;;;;;;;;;;5048279;28;20035;-70
2022/07/19 07:03:27;;;;;;;7.72;6.55;;;;;;;;;;5050020;28;20025;-69
2022/07/19 07:05:54;;;;;;;7.03;6.43;;;;;;;;;;5052234;28;20052;-70
2022/07/19 07:08:20;;;;;;;6.78;6.18;;;;;;;;;;5046918;28;20377;-78
2022/07/19 07:10:46;;;;;;;7.32;5.88;;;;;;;;;;5049420;28;20106;-70
2022/07/19 07:13:12;;;;;;;7.80;6.22;;;;;;;;;;5050039;28;20194;-71
2022/07/19 07:15:39;;;;;;;9.75;6.18;;;;;;;;;;5056511;28;20559;-71
2022/07/19 07:18:06;;;;;;;6.10;5.53;;;;;;;;;;5051075;28;20048;-71
2022/07/19 07:20:34;;;;;;;6.75;6.10;;;;;;;;;;5046495;28;20029;-80
2022/07/19 07:23:00;;;;;;;7.05;6.25;;;;;;;;;;5053414;28;20601;-70
2022/07/19 07:25:26;;;;;;;6.85;6.15;;;;;;;;;;5052784;28;20465;-75
2022/07/19 07:27:52;;;;;;;6.10;5.60;;;;;;;;;;5045752;28;20027;-74
2022/07/19 07:30:18;;;;;;;6.55;5.50;;;;;;;;;;5041668;28;20531;-71
2022/07/19 07:32:45;;;;;;;6.55;5.95;;;;;;;;;;5046077;28;20021;-76
2022/07/19 07:35:11;;;;;;;7.65;6.25;;;;;;;;;;5060581;28;20472;-78
2022/07/19 07:37:37;;;;;;;6.47;6.03;;;;;;;;;;5055316;28;20514;-72
2022/07/19 07:40:03;;;;;;;6.50;5.90;;;;;;;;;;5051143;28;20032;-74
2022/07/19 07:42:31;;;;;;;6.63;6.00;;;;;;;;;;5062238;28;20050;-75
2022/07/19 07:44:58;;;;;;;6.93;6.32;;;;;;;;;;5054208;28;20044;-76
2022/07/19 07:47:25;;;;;;;8.50;6.18;;;;;;;;;;5062756;28;20582;-77
2022/07/19 07:49:51;;;;;;;6.55;5.90;;;;;;;;;;5062164;28;20024;-78
2022/07/19 07:52:17;;;;;;;6.40;5.80;;;;;;;;;;5054298;28;20028;-77
2022/07/19 07:54:43;;;;;;;8.07;5.90;;;;;;;;;;5059190;28;20021;-79
2022/07/19 07:57:09;;;;;;;6.38;5.78;;;;;;;;;;5061559;28;20028;-75
2022/07/19 07:59:38;;;;;;;5.85;5.30;;;;;;;;;;5014746;28;20861;-80
2022/07/19 08:02:04;;;;;;;6.18;5.47;;;;;;;;;;5059711;28;20056;-71
2022/07/19 08:04:31;;;;;;;8.35;6.45;;;;;;;;;;5061988;28;20107;-78
2022/07/19 08:06:57;;;;;;;7.03;5.90;;;;;;;;;;5060100;28;20025;-72
2022/07/19 08:09:23;;;;;;;6.53;5.93;;;;;;;;;;5051688;28;20029;-80
2022/07/19 08:11:49;;;;;;;7.10;6.50;;;;;;;;;;5048585;28;20024;-76
2022/07/19 08:14:15;;;;;;;6.63;6.10;;;;;;;;;;5061222;28;20032;-80
2022/07/19 08:16:41;;;;;;;6.40;5.90;;;;;;;;;;5051739;28;20132;-78
2022/07/19 08:19:08;;;;;;;7.88;6.68;;;;;;;;;;5048799;28;20029;-75
2022/07/19 08:21:35;;;;;;;7.88;6.40;;;;;;;;;;5047759;28;20029;-73
2022/07/19 08:24:01;;;;;;;7.63;5.88;;;;;;;;;;5048564;28;20031;-80
2022/07/19 08:26:27;;;;;;;6.60;6.10;;;;;;;;;;5049696;28;20040;-80
2022/07/19 08:28:53;;;;;;;6.70;6.03;;;;;;;;;;5051971;28;20536;-74
2022/07/19 08:31:19;;;;;;;6.75;6.13;;;;;;;;;;5048836;28;20594;-78
2022/07/19 08:33:45;;;;;;;6.28;5.75;;;;;;;;;;5059286;28;20024;-80
2022/07/19 08:36:11;;;;;;;6.68;6.07;;;;;;;;;;5056861;28;20032;-80
2022/07/19 08:38:38;;;;;;;6.28;5.65;;;;;;;;;;5054616;28;20082;-79
2022/07/19 08:41:05;;;;;;;6.70;5.95;;;;;;;;;;5053896;28;20052;-77
2022/07/19 08:43:31;;;;;;;7.35;6.35;;;;;;;;;;5050947;28;20025;-75
2022/07/19 08:46:01;;;;;;;6.60;6.00;;;;;;;;;;5052174;28;20493;-77
2022/07/19 08:48:27;;;;;;;5.85;5.45;;;;;;;;;;5044309;28;20099;-80
2022/07/19 08:50:54;;;;;;;6.82;6.22;;;;;;;;;;5050716;28;20041;-76
2022/07/19 08:53:21;;;;;;;6.78;6.28;;;;;;;;;;5057166;28;20051;-80
2022/07/19 08:55:49;;;;;;;8.50;6.32;;;;;;;;;;5050380;28;20033;-72
2022/07/19 08:58:15;;;;;;;7.40;6.75;;;;;;;;;;5034187;28;20118;-74
2022/07/19 09:00:41;;;;;;;7.50;6.80;;;;;;;;;;5060673;28;20035;-71
2022/07/19 09:03:08;;;;;;;7.30;6.70;;;;;;;;;;5052111;28;20017;-75
2022/07/19 09:05:35;;;;;;;11.48;7.07;;;;;;;;;;5053953;28;20016;-81
2022/07/19 09:08:06;;;;;;;7.20;6.60;;;;;;;;;;5054623;28;20429;-72
2022/07/19 09:10:33;;;;;;;7.47;6.90;;;;;;;;;;5049202;28;20078;-79
2022/07/19 09:13:00;;;;;;;8.00;7.07;;;;;;;;;;5052562;28;20548;-78
2022/07/19 09:15:39;;;;;;;7.50;6.82;;;;;;;;;;5055292;28;20036;-79
2022/07/19 09:18:11;;;;;;;7.82;7.03;;;;;;;;;;5055504;28;20036;-78
2022/07/19 09:20:38;;;;;;;7.57;6.88;;;;;;;;;;5060486;28;20040;-76
2022/07/19 09:23:04;;;;;;;7.28;6.57;;;;;;;;;;5055027;28;20021;-71
2022/07/19 09:25:37;;;;;;;6.80;6.25;;;;;;;;;;5045997;28;20033;-83
2022/07/19 09:28:03;;;;;;;7.70;7.00;;;;;;;;;;5054883;28;20027;-79
2022/07/19 09:30:39;;;;;;;7.50;6.90;;;;;;;;;;5050946;28;20028;-72
2022/07/19 09:33:10;;;;;;;8.68;7.05;;;;;;;;;;5046743;28;20028;-77
2022/07/19 09:35:38;;;;;;;7.17;6.57;;;;;;;;;;5047274;28;20037;-75
2022/07/19 09:38:17;;;;;;;8.23;6.93;;;;;;;;;;5052738;28;20265;-78
2022/07/19 09:40:44;;;;;;;9.50;7.05;;;;;;;;;;5051676;28;20028;-79
2022/07/19 09:43:10;;;;;;;8.10;7.25;;;;;;;;;;5050092;28;20032;-76
2022/07/19 09:45:36;;;;;;;8.38;6.97;;;;;;;;;;5050334;28;20112;-79
2022/07/19 09:48:03;;;;;;;7.43;6.72;;;;;;;;;;5054161;28;20048;-75
2022/07/19 09:50:30;;;;;;;6.85;6.35;;;;;;;;;;5047654;28;20044;-79
2022/07/19 09:52:59;;;;;;;7.68;6.90;;;;;;;;;;5060539;28;20017;-75
2022/07/19 09:55:25;;;;;;;7.05;6.47;;;;;;;;;;5060402;28;20039;-75
2022/07/19 09:57:51;;;;;;;7.80;7.07;;;;;;;;;;5060263;28;20031;-72
2022/07/19 10:00:19;;;;;;;7.65;6.85;;;;;;;;;;5048575;28;20021;-74
2022/07/19 10:02:48;;;;;;;7.68;7.10;;;;;;;;;;5059320;28;20029;-76
2022/07/19 10:05:15;;;;;;;7.60;6.93;;;;;;;;;;5057255;28;20025;-72
2022/07/19 10:07:41;;;;;;;9.30;7.32;;;;;;;;;;5060177;28;20040;-77
2022/07/19 10:10:12;;;;;;;8.27;7.57;;;;;;;;;;5060246;28;20513;-78
2022/07/19 10:12:39;;;;;;;8.50;6.72;;;;;;;;;;5057128;28;20028;-77
2022/07/19 10:15:06;;;;;;;7.97;7.28;;;;;;;;;;5047717;28;20367;-73
2022/07/19 10:17:32;;;;;;;8.07;7.30;;;;;;;;;;5052510;28;20558;-72
2022/07/19 10:19:58;;;;;;;7.82;7.13;;;;;;;;;;5047382;28;20036;-72
2022/07/19 10:22:26;;;;;;;8.70;7.75;;;;;;;;;;5045476;28;20111;-73
2022/07/19 10:24:54;;;;;;;8.38;7.65;;;;;;;;;;5051057;28;20020;-77
2022/07/19 10:27:26;;;;;;;8.00;7.28;;;;;;;;;;5056595;28;20021;-76
2022/07/19 10:29:53;;;;;;;8.02;7.32;;;;;;;;;;5060881;28;20024;-74
2022/07/19 10:32:27;;;;;;;12.10;8.15;;;;;;;;;;5062022;28;20033;-74
2022/07/19 10:35:13;;;;;;;8.98;8.07;;;;;;;;;;5045442;28;20046;-75
2022/07/19 10:37:40;;;;;;;8.95;8.10;;;;;;;;;;5049893;28;20025;-73
2022/07/19 10:40:07;;;;;;;8.43;7.72;;;;;;;;;;5060084;28;20017;-73
2022/07/19 10:42:33;;;;;;;8.50;7.88;;;;;;;;;;5053310;28;20036;-72
2022/07/19 10:45:02;;;;;;;9.38;8.60;;;;;;;;;;5054339;28;20678;-72
2022/07/19 10:47:36;;;;;;;8.90;8.10;;;;;;;;;;5053276;28;20657;-71
2022/07/19 10:50:18;;;;;;;9.00;8.30;;;;;;;;;;5059011;28;20028;-71
2022/07/19 10:52:45;;;;;;;9.38;8.57;;;;;;;;;;5053534;28;20086;-74
2022/07/19 10:55:17;;;;;;;9.98;9.00;;;;;;;;;;5061302;28;20040;-71
2022/07/19 10:57:46;;;;;;;9.48;8.35;;;;;;;;;;5063476;28;20829;-72
2022/07/19 11:00:28;;;;;;;8.65;7.85;;;;;;;;;;5044940;28;20033;-71
2022/07/19 11:03:13;;;;;;;9.23;8.40;;;;;;;;;;5029715;28;20021;-75
2022/07/19 11:05:47;;;;;;;8.90;8.20;;;;;;;;;;5054675;28;20087;-71
2022/07/19 11:08:13;;;;;;;10.02;8.98;;;;;;;;;;5056134;28;20023;-72
2022/07/19 11:10:39;;;;;;;9.93;9.05;;;;;;;;;;5061016;28;20081;-73
2022/07/19 11:13:06;;;;;;;9.43;8.63;;;;;;;;;;5061666;28;20469;-71
2022/07/19 11:15:32;;;;;;;8.68;7.88;;;;;;;;;;5060387;28;20039;-72
2022/07/19 11:17:59;;;;;;;9.02;8.20;;;;;;;;;;5052054;28;20064;-72
2022/07/19 11:20:26;;;;;;;9.07;8.38;;;;;;;;;;5061185;28;20036;-76
2022/07/19 11:22:55;;;;;;;9.07;8.38;;;;;;;;;;5051423;28;20024;-74
2022/07/19 11:25:25;;;;;;;8.82;7.93;;;;;;;;;;5056747;28;20033;-76
2022/07/19 11:27:51;;;;;;;9.05;7.80;;;;;;;;;;5049931;28;20032;-74
2022/07/19 11:30:21;;;;;;;8.90;8.20;;;;;;;;;;5052333;28;20029;-75
2022/07/19 11:32:51;;;;;;;8.93;8.23;;;;;;;;;;5061450;28;20150;-73
2022/07/19 11:35:17;;;;;;;8.75;8.00;;;;;;;;;;5065432;28;20036;-72
2022/07/19 11:37:43;;;;;;;8.65;7.95;;;;;;;;;;5065077;28;20036;-73
2022/07/19 11:40:10;;;;;;;8.95;8.20;;;;;;;;;;5064554;28;20021;-73
2022/07/19 11:42:42;;;;;;;8.23;7.68;;;;;;;;;;5065453;28;20610;-72
2022/07/19 11:45:12;;;;;;;9.10;8.30;;;;;;;;;;5065967;28;20040;-71
2022/07/19 11:47:45;;;;;;;8.85;7.85;;;;;;;;;;5066023;28;20035;-72
2022/07/19 11:50:13;;;;;;;8.20;7.47;;;;;;;;;;5065690;28;20483;-71
2022/07/19 11:52:46;;;;;;;8.90;8.20;;;;;;;;;;5054600;28;20497;-72
2022/07/19 11:55:13;;;;;;;8.68;7.95;;;;;;;;;;5056671;28;20060;-75
2022/07/19 11:57:39;;;;;;;9.38;8.43;;;;;;;;;;5054201;28;20020;-76
2022/07/19 12:00:09;;;;;;;8.63;7.93;;;;;;;;;;5050902;28;20032;-71
2022/07/19 12:02:52;;;;;;;8.32;7.63;;;;;;;;;;5058692;28;20036;-73
2022/07/19 12:05:18;;;;;;;9.15;8.45;;;;;;;;;;5060488;28;20121;-71
2022/07/19 12:07:48;;;;;;;8.20;7.50;;;;;;;;;;5052017;28;20033;-71
2022/07/19 12:10:33;;;;;;;8.65;8.05;;;;;;;;;;5051104;28;20044;-76
2022/07/19 12:13:00;;;;;;;7.22;6.72;;;;;;;;;;5049561;28;20221;-73
2022/07/19 12:15:26;;;;;;;8.10;7.50;;;;;;;;;;5049570;28;20142;-78
2022/07/19 12:17:56;;;;;;;7.78;7.18;;;;;;;;;;5051451;28;20097;-75
2022/07/19 12:20:22;;;;;;;8.23;7.40;;;;;;;;;;5053882;28;20085;-82
2022/07/19 12:22:48;;;;;;;8.93;7.88;;;;;;;;;;5056710;28;20600;-76
2022/07/19 12:25:15;;;;;;;8.10;7.40;;;;;;;;;;5051547;28;20035;-79
2022/07/19 12:27:41;;;;;;;8.18;7.47;;;;;;;;;;5055345;28;20029;-72
2022/07/19 12:30:18;;;;;;;8.82;8.02;;;;;;;;;;5061931;28;20013;-75
2022/07/19 12:32:47;;;;;;;8.35;7.47;;;;;;;;;;5038583;28;20560;-74
2022/07/19 12:35:14;;;;;;;8.38;7.60;;;;;;;;;;5061311;28;20056;-76
2022/07/19 12:37:41;;;;;;;8.45;7.68;;;;;;;;;;5048316;28;20029;-76
2022/07/19 12:40:11;;;;;;;8.13;7.47;;;;;;;;;;5059577;28;20013;-77
2022/07/19 12:42:37;;;;;;;8.70;7.93;;;;;;;;;;5047978;28;20070;-77
2022/07/19 12:45:08;;;;;;;8.45;7.60;;;;;;;;;;5051273;28;20107;-73
2022/07/19 12:47:34;;;;;;;8.05;7.55;;;;;;;;;;5058878;28;20029;-79
2022/07/19 12:50:01;;;;;;;7.72;7.13;;;;;;;;;;5044085;28;20028;-75
2022/07/19 12:52:27;;;;;;;9.70;8.00;;;;;;;;;;5058839;28;20040;-73
2022/07/19 12:54:53;;;;;;;8.15;7.30;;;;;;;;;;5053836;28;20016;-76
2022/07/19 12:57:19;;;;;;;7.88;7.18;;;;;;;;;;5047213;28;20029;-76
2022/07/19 12:59:45;;;;;;;7.50;6.80;;;;;;;;;;5050423;28;20020;-78
2022/07/19 13:02:13;;;;;;;7.60;6.85;;;;;;;;;;5050434;28;20048;-81
2022/07/19 13:04:40;;;;;;;8.48;6.93;;;;;;;;;;5046554;28;20636;-78
2022/07/19 13:07:07;;;;;;;7.18;6.63;;;;;;;;;;5047924;28;20021;-74
2022/07/19 13:09:34;;;;;;;7.38;6.78;;;;;;;;;;5052874;28;20494;-78
2022/07/19 13:12:01;;;;;;;7.57;6.85;;;;;;;;;;5056185;28;20119;-79
2022/07/19 13:14:27;;;;;;;8.55;7.68;;;;;;;;;;5031923;28;20658;-77
2022/07/19 13:16:53;;;;;;;7.50;6.85;;;;;;;;;;5050419;28;20517;-79
2022/07/19 13:19:19;;;;;;;7.47;6.97;;;;;;;;;;5047622;28;20424;-79
2022/07/19 13:21:45;;;;;;;7.18;6.38;;;;;;;;;;5055944;28;20135;-80
2022/07/19 13:24:12;;;;;;;7.22;6.63;;;;;;;;;;5023111;28;20445;-77
2022/07/19 13:26:38;;;;;;;8.18;6.40;;;;;;;;;;5049440;28;20024;-72
2022/07/19 13:29:05;;;;;;;7.55;6.78;;;;;;;;;;5044518;28;20424;-76
2022/07/19 13:31:37;;;;;;;7.45;6.70;;;;;;;;;;5036321;28;20040;-77
2022/07/19 13:34:04;;;;;;;7.10;6.50;;;;;;;;;;5040480;28;20060;-77
2022/07/19 13:36:30;;;;;;;6.35;5.85;;;;;;;;;;5056219;28;20528;-73
2022/07/19 13:38:57;;;;;;;6.47;5.97;;;;;;;;;;5058634;28;20036;-80
2022/07/19 13:41:23;;;;;;;6.30;5.68;;;;;;;;;;5056226;28;20449;-73
2022/07/19 13:43:52;;;;;;;6.18;5.68;;;;;;;;;;5050490;28;20028;-72
2022/07/19 13:46:19;;;;;;;5.97;5.47;;;;;;;;;;5058961;28;20104;-74
2022/07/19 13:48:45;;;;;;;6.45;5.35;;;;;;;;;;5052153;28;20053;-78
2022/07/19 13:51:11;;;;;;;6.28;5.47;;;;;;;;;;5043951;28;20091;-73
2022/07/19 13:53:38;;;;;;;5.90;5.40;;;;;;;;;;5055302;28;20020;-78
2022/07/19 13:56:05;;;;;;;5.38;4.88;;;;;;;;;;5051781;28;20048;-77
2022/07/19 13:58:31;;;;;;;6.97;5.22;;;;;;;;;;5041789;28;20063;-80
2022/07/19 14:00:57;;;;;;;6.57;5.97;;;;;;;;;;5045818;28;20024;-72
2022/07/19 14:03:23;;;;;;;6.57;5.50;;;;;;;;;;5047501;28;20501;-78
2022/07/19 14:05:50;;;;;;;6.70;6.10;;;;;;;;;;5049799;28;20033;-72
2022/07/19 14:08:16;;;;;;;64.00;11.05;;;;;;;;;;5060498;28;20095;-73
2022/07/19 14:10:42;;;;;;;14.52;6.80;;;;;;;;;;5046519;28;20075;-73
2022/07/19 14:13:09;;;;;;;6.95;6.18;;;;;;;;;;5055194;28;20392;-72
2022/07/19 14:15:35;;;;;;;7.30;6.60;;;;;;;;;;5054677;28;20025;-73
2022/07/19 14:18:02;;;;;;;9.75;7.47;;;;;;;;;;5058976;28;20048;-72
2022/07/19 14:20:28;;;;;;;7.07;6.45;;;;;;;;;;5050159;28;20017;-72
2022/07/19 14:22:54;;;;;;;9.85;7.32;;;;;;;;;;5059568;28;20146;-73
2022/07/19 14:25:21;;;;;;;7.50;6.85;;;;;;;;;;5052692;28;20025;-75
2022/07/19 14:27:47;;;;;;;9.88;6.82;;;;;;;;;;5054102;28;20369;-72
2022/07/19 14:30:17;;;;;;;6.95;6.35;;;;;;;;;;5038696;28;20192;-73
2022/07/19 14:32:44;;;;;;;7.50;6.80;;;;;;;;;;5050437;28;20893;-72
2022/07/19 14:35:10;;;;;;;7.00;6.47;;;;;;;;;;5035578;28;20044;-72
2022/07/19 14:37:36;;;;;;;6.70;6.18;;;;;;;;;;5060248;28;20020;-71